createdAt,value
2018-05-07T00:00:27.747Z,0.00
2018-05-07T00:01:27.799Z,0.00
2018-05-07T00:02:27.766Z,0.00
2018-05-07T00:03:27.791Z,0.00
2018-05-07T00:04:27.818Z,0.00
2018-05-07T00:05:27.846Z,0.00
2018-05-07T00:06:27.956Z,0.00
2018-05-07T00:07:27.904Z,0.00
2018-05-07T00:08:27.928Z,0.00
2018-05-07T00:09:27.978Z,0.00
2018-05-07T00:10:27.984Z,0.00
2018-05-07T00:11:28.012Z,0.00
2018-05-07T00:12:28.039Z,0.00
2018-05-07T00:13:28.066Z,0.00
2018-05-07T00:14:28.108Z,0.00
2018-05-07T00:15:28.122Z,0.00
2018-05-07T00:16:28.192Z,0.00
2018-05-07T00:17:28.176Z,0.00
2018-05-07T00:18:28.205Z,0.00
2018-05-07T00:19:28.232Z,0.00
2018-05-07T00:20:28.259Z,0.00
2018-05-07T00:21:28.314Z,0.00
2018-05-07T00:22:28.350Z,0.00
2018-05-07T00:23:28.342Z,0.00
2018-05-07T00:24:28.370Z,0.00
2018-05-07T00:25:28.397Z,0.00
2018-05-07T00:26:28.428Z,0.00
2018-05-07T00:27:28.454Z,0.00
2018-05-07T00:28:28.480Z,0.00
2018-05-07T00:29:28.507Z,0.00
2018-05-07T00:30:28.534Z,0.00
2018-05-07T00:31:28.563Z,0.00
2018-05-07T00:32:28.590Z,0.00
2018-05-07T00:33:28.617Z,0.00
2018-05-07T00:34:28.645Z,0.00
2018-05-07T00:35:28.673Z,0.00
2018-05-07T00:36:28.701Z,0.00
2018-05-07T00:37:28.726Z,0.00
2018-05-07T00:38:28.755Z,0.00
2018-05-07T00:39:28.783Z,0.00
2018-05-07T00:40:28.809Z,0.00
2018-05-07T00:41:28.864Z,0.00
2018-05-07T00:42:28.869Z,0.00
2018-05-07T00:43:28.892Z,0.00
2018-05-07T00:44:28.919Z,0.00
2018-05-07T00:45:28.947Z,0.00
2018-05-07T00:46:28.974Z,0.00
2018-05-07T00:47:29.028Z,0.00
2018-05-07T00:48:29.030Z,0.00
2018-05-07T00:49:29.077Z,0.00
2018-05-07T00:50:29.149Z,0.00
2018-05-07T00:51:29.113Z,0.00
2018-05-07T00:52:29.139Z,0.00
2018-05-07T00:53:29.173Z,0.00
2018-05-07T00:54:29.195Z,0.00
2018-05-07T00:55:29.223Z,0.00
2018-05-07T00:56:29.268Z,0.00
2018-05-07T00:57:29.277Z,0.00
2018-05-07T00:58:29.323Z,0.00
2018-05-07T00:59:29.333Z,0.00
2018-05-07T01:00:29.363Z,0.00
2018-05-07T01:01:29.388Z,0.00
2018-05-07T01:02:29.415Z,0.00
2018-05-07T01:03:29.443Z,0.00
2018-05-07T01:04:29.470Z,0.00
2018-05-07T01:05:29.498Z,0.00
2018-05-07T01:06:29.526Z,0.00
2018-05-07T01:07:29.553Z,0.00
2018-05-07T01:08:29.619Z,4.00
2018-05-07T01:09:29.608Z,4.00
2018-05-07T01:10:29.636Z,4.00
2018-05-07T01:11:29.674Z,0.00
2018-05-07T01:12:29.690Z,0.00
2018-05-07T01:13:29.718Z,4.00
2018-05-07T01:14:29.746Z,4.00
2018-05-07T01:15:29.773Z,4.00
2018-05-07T01:16:29.800Z,4.00
2018-05-07T01:17:29.831Z,0.00
2018-05-07T01:18:29.884Z,4.00
2018-05-07T01:19:29.883Z,4.00
2018-05-07T01:20:29.910Z,4.00
2018-05-07T01:21:29.937Z,4.00
2018-05-07T01:22:29.968Z,4.00
2018-05-07T01:23:29.993Z,8.00
2018-05-07T01:24:30.020Z,8.00
2018-05-07T01:25:30.048Z,8.00
2018-05-07T01:26:30.076Z,8.00
2018-05-07T01:27:30.103Z,8.00
2018-05-07T01:28:30.148Z,8.00
2018-05-07T01:29:30.158Z,4.00
2018-05-07T01:30:30.186Z,8.00
2018-05-07T01:31:30.213Z,8.00
2018-05-07T01:32:30.241Z,8.00
2018-05-07T01:33:30.269Z,12.00
2018-05-07T01:34:30.295Z,8.00
2018-05-07T01:35:30.325Z,12.00
2018-05-07T01:36:30.350Z,12.00
2018-05-07T01:37:30.380Z,12.00
2018-05-07T01:38:30.406Z,12.00
2018-05-07T01:39:30.434Z,16.00
2018-05-07T01:40:30.460Z,12.00
2018-05-07T01:41:30.488Z,16.00
2018-05-07T01:42:30.524Z,16.00
2018-05-07T01:43:30.543Z,16.00
2018-05-07T01:44:30.585Z,20.00
2018-05-07T01:45:30.598Z,16.00
2018-05-07T01:46:30.626Z,20.00
2018-05-07T01:47:30.654Z,20.00
2018-05-07T01:48:30.680Z,20.00
2018-05-07T01:49:30.708Z,24.00
2018-05-07T01:50:30.739Z,24.00
2018-05-07T01:51:30.770Z,24.00
2018-05-07T01:52:30.791Z,24.00
2018-05-07T01:53:30.818Z,24.00
2018-05-07T01:54:30.846Z,28.00
2018-05-07T01:55:30.873Z,28.00
2018-05-07T01:56:30.914Z,32.00
2018-05-07T01:57:30.928Z,28.00
2018-05-07T01:58:30.956Z,32.00
2018-05-07T01:59:30.984Z,36.00
2018-05-07T02:00:31.015Z,36.00
2018-05-07T02:01:31.040Z,36.00
2018-05-07T02:02:31.066Z,40.00
2018-05-07T02:03:31.094Z,40.00
2018-05-07T02:04:31.121Z,40.00
2018-05-07T02:05:31.152Z,44.00
2018-05-07T02:06:31.176Z,44.00
2018-05-07T02:07:31.204Z,48.00
2018-05-07T02:08:31.231Z,52.00
2018-05-07T02:09:31.257Z,60.00
2018-05-07T02:10:31.286Z,72.00
2018-05-07T02:11:31.314Z,84.00
2018-05-07T02:12:31.340Z,92.00
2018-05-07T02:13:31.368Z,92.00
2018-05-07T02:14:31.396Z,80.00
2018-05-07T02:15:31.423Z,80.00
2018-05-07T02:16:31.450Z,84.00
2018-05-07T02:17:31.478Z,88.00
2018-05-07T02:18:31.506Z,96.00
2018-05-07T02:19:31.533Z,108.00
2018-05-07T02:20:31.560Z,104.00
2018-05-07T02:21:31.619Z,104.00
2018-05-07T02:22:31.616Z,108.00
2018-05-07T02:23:31.643Z,116.00
2018-05-07T02:24:31.671Z,116.00
2018-05-07T02:25:31.698Z,112.00
2018-05-07T02:26:31.726Z,108.00
2018-05-07T02:27:31.753Z,112.00
2018-05-07T02:28:31.781Z,120.00
2018-05-07T02:29:31.809Z,128.00
2018-05-07T02:30:31.836Z,140.00
2018-05-07T02:31:31.866Z,156.00
2018-05-07T02:32:31.929Z,168.00
2018-05-07T02:33:31.919Z,184.00
2018-05-07T02:34:31.985Z,200.00
2018-05-07T02:35:31.974Z,212.00
2018-05-07T02:36:32.001Z,232.00
2018-05-07T02:37:32.028Z,260.00
2018-05-07T02:38:32.056Z,308.00
2018-05-07T02:39:32.084Z,364.00
2018-05-07T02:40:32.127Z,408.00
2018-05-07T02:41:32.139Z,444.00
2018-05-07T02:42:32.166Z,516.00
2018-05-07T02:43:32.194Z,504.00
2018-05-07T02:44:32.221Z,504.00
2018-05-07T02:45:32.249Z,524.00
2018-05-07T02:46:32.276Z,556.00
2018-05-07T02:47:32.304Z,620.00
2018-05-07T02:48:32.332Z,772.00
2018-05-07T02:49:32.360Z,760.00
2018-05-07T02:50:32.396Z,824.00
2018-05-07T02:51:32.419Z,828.00
2018-05-07T02:52:32.441Z,880.00
2018-05-07T02:53:32.469Z,1132.00
2018-05-07T02:54:32.496Z,1188.00
2018-05-07T02:55:32.525Z,1240.00
2018-05-07T02:56:32.580Z,1280.00
2018-05-07T02:57:32.579Z,1300.00
2018-05-07T02:58:32.606Z,1312.00
2018-05-07T02:59:32.635Z,1324.00
2018-05-07T03:00:32.697Z,1344.00
2018-05-07T03:01:32.689Z,1380.00
2018-05-07T03:02:32.718Z,1412.00
2018-05-07T03:03:32.746Z,1432.00
2018-05-07T03:04:32.771Z,1452.00
2018-05-07T03:05:32.799Z,1488.00
2018-05-07T03:06:32.827Z,1512.00
2018-05-07T03:07:32.856Z,1508.00
2018-05-07T03:08:32.883Z,1412.00
2018-05-07T03:09:32.909Z,1280.00
2018-05-07T03:10:32.938Z,1112.00
2018-05-07T03:11:32.965Z,888.00
2018-05-07T03:12:32.993Z,808.00
2018-05-07T03:13:33.020Z,720.00
2018-05-07T03:14:33.049Z,652.00
2018-05-07T03:15:33.077Z,660.00
2018-05-07T03:16:33.103Z,752.00
2018-05-07T03:17:33.196Z,872.00
2018-05-07T03:18:33.159Z,956.00
2018-05-07T03:19:33.186Z,948.00
2018-05-07T03:20:33.214Z,1048.00
2018-05-07T03:21:33.242Z,1116.00
2018-05-07T03:22:33.269Z,1140.00
2018-05-07T03:23:33.297Z,1160.00
2018-05-07T03:24:33.325Z,1096.00
2018-05-07T03:25:33.355Z,968.00
2018-05-07T03:26:33.381Z,784.00
2018-05-07T03:27:33.410Z,624.00
2018-05-07T03:28:33.435Z,580.00
2018-05-07T03:29:33.464Z,584.00
2018-05-07T03:30:33.491Z,608.00
2018-05-07T03:31:33.522Z,704.00
2018-05-07T03:32:33.546Z,860.00
2018-05-07T03:33:33.578Z,908.00
2018-05-07T03:34:33.610Z,836.00
2018-05-07T03:35:33.630Z,816.00
2018-05-07T03:36:33.656Z,872.00
2018-05-07T03:37:33.686Z,980.00
2018-05-07T03:38:33.713Z,892.00
2018-05-07T03:39:33.741Z,832.00
2018-05-07T03:40:33.860Z,880.00
2018-05-07T03:41:33.798Z,968.00
2018-05-07T03:42:33.824Z,1352.00
2018-05-07T03:43:33.852Z,1936.00
2018-05-07T03:44:33.880Z,2040.00
2018-05-07T03:45:33.908Z,1732.00
2018-05-07T03:46:33.935Z,1332.00
2018-05-07T03:47:33.967Z,1140.00
2018-05-07T03:48:33.991Z,1228.00
2018-05-07T03:49:34.018Z,1772.00
2018-05-07T03:50:34.048Z,2204.00
2018-05-07T03:51:34.075Z,2872.00
2018-05-07T03:52:34.101Z,3404.00
2018-05-07T03:53:34.129Z,3192.00
2018-05-07T03:54:34.158Z,3368.00
2018-05-07T03:55:34.186Z,4268.00
2018-05-07T03:56:34.213Z,4724.00
2018-05-07T03:57:34.240Z,4824.00
2018-05-07T03:58:34.269Z,4888.00
2018-05-07T03:59:34.298Z,4792.00
2018-05-07T04:00:34.328Z,4448.00
2018-05-07T04:01:34.354Z,4332.00
2018-05-07T04:02:34.380Z,4284.00
2018-05-07T04:03:34.411Z,4228.00
2018-05-07T04:04:34.470Z,4188.00
2018-05-07T04:05:34.464Z,3824.00
2018-05-07T04:06:34.493Z,3272.00
2018-05-07T04:07:34.520Z,3252.00
2018-05-07T04:08:34.550Z,3036.00
2018-05-07T04:09:34.576Z,3136.00
2018-05-07T04:10:34.607Z,3224.00
2018-05-07T04:11:34.632Z,2672.00
2018-05-07T04:12:34.659Z,1644.00
2018-05-07T04:13:34.687Z,1136.00
2018-05-07T04:14:34.717Z,1108.00
2018-05-07T04:15:34.744Z,1160.00
2018-05-07T04:16:34.772Z,964.00
2018-05-07T04:17:34.803Z,940.00
2018-05-07T04:18:34.828Z,1044.00
2018-05-07T04:19:34.873Z,796.00
2018-05-07T04:20:34.884Z,628.00
2018-05-07T04:21:34.915Z,624.00
2018-05-07T04:22:34.940Z,620.00
2018-05-07T04:23:34.989Z,580.00
2018-05-07T04:24:34.995Z,596.00
2018-05-07T04:25:35.024Z,660.00
2018-05-07T04:26:35.052Z,708.00
2018-05-07T04:27:35.094Z,804.00
2018-05-07T04:28:35.150Z,992.00
2018-05-07T04:29:35.137Z,1448.00
2018-05-07T04:30:35.170Z,1372.00
2018-05-07T04:31:35.198Z,824.00
2018-05-07T04:32:35.219Z,844.00
2018-05-07T04:33:35.247Z,1176.00
2018-05-07T04:34:35.276Z,1088.00
2018-05-07T04:35:35.304Z,924.00
2018-05-07T04:36:35.330Z,700.00
2018-05-07T04:37:35.358Z,660.00
2018-05-07T04:38:35.387Z,664.00
2018-05-07T04:39:35.415Z,572.00
2018-05-07T04:40:35.521Z,532.00
2018-05-07T04:41:35.470Z,576.00
2018-05-07T04:42:35.498Z,648.00
2018-05-07T04:43:35.528Z,624.00
2018-05-07T04:44:35.555Z,588.00
2018-05-07T04:45:35.583Z,600.00
2018-05-07T04:46:35.610Z,636.00
2018-05-07T04:47:35.638Z,596.00
2018-05-07T04:48:35.669Z,612.00
2018-05-07T04:49:35.694Z,744.00
2018-05-07T04:50:35.763Z,880.00
2018-05-07T04:51:35.750Z,816.00
2018-05-07T04:52:35.777Z,716.00
2018-05-07T04:53:35.804Z,764.00
2018-05-07T04:54:35.834Z,1000.00
2018-05-07T04:55:35.861Z,1260.00
2018-05-07T04:56:35.888Z,2312.00
2018-05-07T04:57:35.917Z,3812.00
2018-05-07T04:58:35.983Z,4816.00
2018-05-07T04:59:35.973Z,5416.00
2018-05-07T05:00:36.000Z,5548.00
2018-05-07T05:01:36.065Z,5176.00
2018-05-07T05:02:36.057Z,4620.00
2018-05-07T05:03:36.088Z,4220.00
2018-05-07T05:04:36.111Z,4092.00
2018-05-07T05:05:36.141Z,4260.00
2018-05-07T05:06:36.169Z,3632.00
2018-05-07T05:07:36.236Z,3484.00
2018-05-07T05:08:36.224Z,3444.00
2018-05-07T05:09:36.262Z,3120.00
2018-05-07T05:10:36.279Z,2516.00
2018-05-07T05:11:36.308Z,2604.00
2018-05-07T05:12:36.335Z,2608.00
2018-05-07T05:13:36.364Z,1980.00
2018-05-07T05:14:36.392Z,1840.00
2018-05-07T05:15:36.420Z,2060.00
2018-05-07T05:16:36.497Z,2216.00
2018-05-07T05:17:36.480Z,1792.00
2018-05-07T05:18:36.504Z,1296.00
2018-05-07T05:19:36.532Z,1136.00
2018-05-07T05:20:36.559Z,1024.00
2018-05-07T05:21:36.588Z,1068.00
2018-05-07T05:22:36.662Z,1132.00
2018-05-07T05:23:36.644Z,1212.00
2018-05-07T05:24:36.671Z,1188.00
2018-05-07T05:25:36.700Z,1068.00
2018-05-07T05:26:36.728Z,856.00
2018-05-07T05:27:36.757Z,772.00
2018-05-07T05:28:36.785Z,772.00
2018-05-07T05:29:36.817Z,760.00
2018-05-07T05:30:36.844Z,724.00
2018-05-07T05:31:36.868Z,712.00
2018-05-07T05:32:36.895Z,720.00
2018-05-07T05:33:36.923Z,700.00
2018-05-07T05:34:36.955Z,684.00
2018-05-07T05:35:36.980Z,684.00
2018-05-07T05:36:37.006Z,656.00
2018-05-07T05:37:37.035Z,652.00
2018-05-07T05:38:37.112Z,640.00
2018-05-07T05:39:37.091Z,656.00
2018-05-07T05:40:37.119Z,648.00
2018-05-07T05:41:37.147Z,644.00
2018-05-07T05:42:37.215Z,628.00
2018-05-07T05:43:37.296Z,624.00
2018-05-07T05:44:37.234Z,632.00
2018-05-07T05:45:37.259Z,648.00
2018-05-07T05:46:37.288Z,644.00
2018-05-07T05:47:37.316Z,648.00
2018-05-07T05:48:37.385Z,644.00
2018-05-07T05:49:37.371Z,648.00
2018-05-07T05:50:37.399Z,668.00
2018-05-07T05:51:37.427Z,704.00
2018-05-07T05:52:37.454Z,788.00
2018-05-07T05:53:37.495Z,880.00
2018-05-07T05:54:37.512Z,908.00
2018-05-07T05:55:37.538Z,924.00
2018-05-07T05:56:37.591Z,948.00
2018-05-07T05:57:37.593Z,996.00
2018-05-07T05:58:37.621Z,1032.00
2018-05-07T05:59:37.649Z,1052.00
2018-05-07T06:00:37.677Z,1052.00
2018-05-07T06:01:37.707Z,1036.00
2018-05-07T06:02:37.735Z,996.00
2018-05-07T06:03:37.817Z,936.00
2018-05-07T06:04:37.789Z,900.00
2018-05-07T06:05:37.817Z,868.00
2018-05-07T06:06:37.845Z,896.00
2018-05-07T06:07:37.880Z,888.00
2018-05-07T06:08:37.900Z,872.00
2018-05-07T06:09:37.931Z,836.00
2018-05-07T06:10:37.992Z,848.00
2018-05-07T06:11:37.984Z,844.00
2018-05-07T06:12:38.012Z,836.00
2018-05-07T06:13:38.089Z,828.00
2018-05-07T06:14:38.189Z,816.00
2018-05-07T06:15:38.103Z,808.00
2018-05-07T06:16:38.128Z,800.00
2018-05-07T06:17:38.151Z,788.00
2018-05-07T06:18:38.179Z,780.00
2018-05-07T06:19:38.208Z,776.00
2018-05-07T06:20:38.240Z,768.00
2018-05-07T06:21:38.264Z,760.00
2018-05-07T06:22:38.291Z,748.00
2018-05-07T06:23:38.333Z,748.00
2018-05-07T06:24:38.351Z,748.00
2018-05-07T06:25:38.375Z,732.00
2018-05-07T06:26:38.404Z,752.00
2018-05-07T06:27:38.431Z,736.00
2018-05-07T06:28:38.460Z,732.00
2018-05-07T06:29:38.487Z,712.00
2018-05-07T06:30:38.516Z,696.00
2018-05-07T06:31:38.543Z,680.00
2018-05-07T06:32:38.569Z,656.00
2018-05-07T06:33:38.606Z,660.00
2018-05-07T06:34:38.626Z,656.00
2018-05-07T06:35:38.657Z,620.00
2018-05-07T06:36:38.683Z,636.00
2018-05-07T06:37:38.709Z,624.00
2018-05-07T06:38:38.738Z,612.00
2018-05-07T06:39:38.820Z,596.00
2018-05-07T06:40:38.794Z,584.00
2018-05-07T06:41:38.823Z,568.00
2018-05-07T06:42:38.851Z,568.00
2018-05-07T06:43:38.878Z,556.00
2018-05-07T06:44:38.905Z,556.00
2018-05-07T06:45:38.969Z,548.00
2018-05-07T06:46:38.982Z,544.00
2018-05-07T06:47:38.991Z,544.00
2018-05-07T06:48:39.017Z,540.00
2018-05-07T06:49:39.049Z,536.00
2018-05-07T06:50:39.107Z,532.00
2018-05-07T06:51:39.106Z,532.00
2018-05-07T06:52:39.129Z,528.00
2018-05-07T06:53:39.166Z,528.00
2018-05-07T06:54:39.189Z,524.00
2018-05-07T06:55:39.214Z,524.00
2018-05-07T06:56:39.243Z,520.00
2018-05-07T06:57:39.273Z,532.00
2018-05-07T06:58:39.310Z,536.00
2018-05-07T06:59:39.325Z,552.00
2018-05-07T07:00:39.352Z,568.00
2018-05-07T07:01:39.381Z,576.00
2018-05-07T07:02:39.575Z,576.00
2018-05-07T07:03:39.440Z,556.00
2018-05-07T07:04:39.466Z,528.00
2018-05-07T07:05:39.492Z,500.00
2018-05-07T07:06:39.521Z,488.00
2018-05-07T07:07:39.549Z,484.00
2018-05-07T07:08:39.687Z,480.00
2018-05-07T07:09:39.608Z,472.00
2018-05-07T07:10:39.636Z,472.00
2018-05-07T07:11:39.662Z,464.00
2018-05-07T07:12:39.690Z,456.00
2018-05-07T07:13:39.735Z,460.00
2018-05-07T07:14:39.750Z,456.00
2018-05-07T07:15:39.773Z,452.00
2018-05-07T07:16:39.800Z,452.00
2018-05-07T07:17:39.849Z,448.00
2018-05-07T07:18:39.856Z,452.00
2018-05-07T07:19:39.884Z,448.00
2018-05-07T07:20:39.912Z,448.00
2018-05-07T07:21:39.953Z,448.00
2018-05-07T07:22:39.970Z,452.00
2018-05-07T07:23:39.996Z,452.00
2018-05-07T07:24:40.035Z,452.00
2018-05-07T07:25:40.052Z,452.00
2018-05-07T07:26:40.080Z,456.00
2018-05-07T07:27:40.107Z,456.00
2018-05-07T07:28:40.135Z,460.00
2018-05-07T07:29:40.176Z,468.00
2018-05-07T07:30:40.191Z,472.00
2018-05-07T07:31:40.219Z,484.00
2018-05-07T07:32:40.253Z,488.00
2018-05-07T07:33:40.299Z,488.00
2018-05-07T07:34:40.304Z,492.00
2018-05-07T07:35:40.330Z,496.00
2018-05-07T07:36:40.357Z,504.00
2018-05-07T07:37:40.388Z,504.00
2018-05-07T07:38:40.422Z,508.00
2018-05-07T07:39:40.453Z,516.00
2018-05-07T07:40:40.469Z,524.00
2018-05-07T07:41:40.570Z,532.00
2018-05-07T07:42:40.526Z,540.00
2018-05-07T07:43:40.557Z,548.00
2018-05-07T07:44:40.583Z,544.00
2018-05-07T07:45:40.610Z,528.00
2018-05-07T07:46:40.637Z,512.00
2018-05-07T07:47:40.667Z,504.00
2018-05-07T07:48:40.693Z,496.00
2018-05-07T07:49:40.721Z,492.00
2018-05-07T07:50:40.748Z,492.00
2018-05-07T07:51:40.776Z,488.00
2018-05-07T07:52:40.820Z,488.00
2018-05-07T07:53:40.868Z,488.00
2018-05-07T07:54:40.866Z,484.00
2018-05-07T07:55:40.889Z,488.00
2018-05-07T07:56:40.916Z,484.00
2018-05-07T07:57:40.947Z,484.00
2018-05-07T07:58:40.972Z,480.00
2018-05-07T07:59:40.999Z,464.00
2018-05-07T08:00:41.027Z,452.00
2018-05-07T08:01:41.081Z,460.00
2018-05-07T08:02:41.084Z,464.00
2018-05-07T08:03:41.112Z,500.00
2018-05-07T08:04:41.138Z,548.00
2018-05-07T08:05:41.174Z,600.00
2018-05-07T08:06:41.233Z,640.00
2018-05-07T08:07:41.224Z,684.00
2018-05-07T08:08:41.251Z,732.00
2018-05-07T08:09:41.284Z,756.00
2018-05-07T08:10:41.309Z,792.00
2018-05-07T08:11:41.338Z,800.00
2018-05-07T08:12:41.363Z,832.00
2018-05-07T08:13:41.391Z,852.00
2018-05-07T08:14:41.420Z,880.00
2018-05-07T08:15:41.447Z,936.00
2018-05-07T08:16:41.474Z,992.00
2018-05-07T08:17:41.502Z,1036.00
2018-05-07T08:18:41.533Z,1048.00
2018-05-07T08:19:41.558Z,1044.00
2018-05-07T08:20:41.590Z,984.00
2018-05-07T08:21:41.637Z,888.00
2018-05-07T08:22:41.643Z,812.00
2018-05-07T08:23:41.670Z,748.00
2018-05-07T08:24:41.827Z,688.00
2018-05-07T08:25:41.726Z,632.00
2018-05-07T08:26:41.799Z,596.00
2018-05-07T08:27:41.783Z,568.00
2018-05-07T08:28:41.809Z,536.00
2018-05-07T08:29:41.837Z,520.00
2018-05-07T08:30:41.869Z,528.00
2018-05-07T08:31:41.894Z,536.00
2018-05-07T08:32:41.922Z,536.00
2018-05-07T08:33:41.955Z,520.00
2018-05-07T08:34:41.983Z,528.00
2018-05-07T08:35:42.006Z,532.00
2018-05-07T08:36:42.109Z,560.00
2018-05-07T08:37:42.061Z,560.00
2018-05-07T08:38:42.093Z,612.00
2018-05-07T08:39:42.121Z,652.00
2018-05-07T08:40:42.145Z,712.00
2018-05-07T08:41:42.213Z,736.00
2018-05-07T08:42:42.202Z,760.00
2018-05-07T08:43:42.231Z,840.00
2018-05-07T08:44:42.262Z,860.00
2018-05-07T08:45:42.286Z,848.00
2018-05-07T08:50:43.449Z,912.00
2018-05-07T08:51:43.405Z,980.00
2018-05-07T08:52:43.507Z,976.00
2018-05-07T08:53:43.464Z,1000.00
2018-05-07T08:54:43.487Z,1020.00
2018-05-07T08:55:43.544Z,1032.00
2018-05-07T08:56:43.544Z,1024.00
2018-05-07T08:57:43.571Z,1044.00
2018-05-07T08:58:43.598Z,1112.00
2018-05-07T08:59:43.644Z,1228.00
2018-05-07T09:00:43.655Z,1384.00
2018-05-07T09:01:43.682Z,1496.00
2018-05-07T09:02:43.709Z,1484.00
2018-05-07T09:03:43.737Z,1420.00
2018-05-07T09:04:43.767Z,1356.00
2018-05-07T09:05:43.793Z,1284.00
2018-05-07T09:06:43.822Z,1200.00
2018-05-07T09:07:43.851Z,1144.00
2018-05-07T09:08:43.890Z,1140.00
2018-05-07T09:09:43.907Z,1128.00
2018-05-07T09:10:43.933Z,1088.00
2018-05-07T09:11:43.966Z,1060.00
2018-05-07T09:12:43.999Z,1080.00
2018-05-07T09:13:44.126Z,1040.00
2018-05-07T09:14:44.045Z,976.00
2018-05-07T09:15:44.088Z,948.00
2018-05-07T09:16:44.102Z,1008.00
2018-05-07T09:17:44.130Z,1072.00
2018-05-07T09:18:44.188Z,992.00
2018-05-07T09:19:44.185Z,1016.00
2018-05-07T09:20:44.218Z,1004.00
2018-05-07T09:21:44.269Z,996.00
2018-05-07T09:22:44.269Z,1036.00
2018-05-07T09:23:44.299Z,1120.00
2018-05-07T09:24:44.365Z,1140.00
2018-05-07T09:25:44.385Z,1132.00
2018-05-07T09:26:44.381Z,1156.00
2018-05-07T09:27:44.410Z,1264.00
2018-05-07T09:28:44.443Z,1344.00
2018-05-07T09:29:44.466Z,1300.00
2018-05-07T09:30:44.492Z,1204.00
2018-05-07T09:31:44.522Z,1112.00
2018-05-07T09:32:44.551Z,1056.00
2018-05-07T09:33:44.577Z,1080.00
2018-05-07T09:34:44.609Z,1176.00
2018-05-07T09:35:44.635Z,1312.00
2018-05-07T09:36:44.663Z,1248.00
2018-05-07T09:37:44.691Z,1112.00
2018-05-07T09:38:44.717Z,904.00
2018-05-07T09:39:44.747Z,748.00
2018-05-07T09:40:44.801Z,720.00
2018-05-07T09:41:44.808Z,732.00
2018-05-07T09:42:44.833Z,788.00
2018-05-07T09:43:44.860Z,748.00
2018-05-07T09:44:44.886Z,564.00
2018-05-07T09:45:44.916Z,488.00
2018-05-07T09:46:44.942Z,480.00
2018-05-07T09:47:44.970Z,508.00
2018-05-07T09:48:44.998Z,536.00
2018-05-07T09:49:52.180Z,560.00
2018-05-07T09:51:38.788Z,532.00
2018-05-07T09:52:38.836Z,516.00
2018-05-07T09:54:33.403Z,480.00
2018-05-07T09:55:33.419Z,492.00
2018-05-07T09:57:53.657Z,612.00
2018-05-07T09:58:53.563Z,652.00
2018-05-07T10:01:13.672Z,612.00
2018-05-07T10:02:13.671Z,572.00
2018-05-07T10:04:21.072Z,500.00
2018-05-07T10:05:21.048Z,468.00
2018-05-07T10:07:41.200Z,452.00
2018-05-07T10:08:41.168Z,448.00
2018-05-07T10:10:34.135Z,552.00
2018-05-07T10:11:34.128Z,624.00
2018-05-07T10:13:27.053Z,664.00
2018-05-07T10:14:27.060Z,624.00
2018-05-07T10:16:20.197Z,492.00
2018-05-07T10:17:20.198Z,440.00
2018-05-07T10:19:14.817Z,396.00
2018-05-07T10:20:14.818Z,388.00
2018-05-07T10:22:07.719Z,384.00
2018-05-07T10:23:07.732Z,392.00
2018-05-07T10:25:00.713Z,412.00
2018-05-07T10:26:00.651Z,420.00
2018-05-07T10:28:20.781Z,448.00
2018-05-07T10:29:20.782Z,460.00
2018-05-07T10:31:53.662Z,456.00
2018-05-07T10:32:53.685Z,464.00
2018-05-07T10:35:00.187Z,508.00
2018-05-07T10:36:00.184Z,524.00
2018-05-07T10:37:53.103Z,628.00
2018-05-07T10:38:53.102Z,684.00
2018-05-07T10:40:46.000Z,752.00
2018-05-07T10:41:46.021Z,772.00
2018-05-07T10:44:06.160Z,800.00
2018-05-07T10:45:06.150Z,808.00
2018-05-07T10:47:25.430Z,776.00
2018-05-07T10:48:25.430Z,732.00
2018-05-07T10:50:45.536Z,600.00
2018-05-07T10:51:45.557Z,540.00
2018-05-07T10:54:05.685Z,424.00
2018-05-07T10:55:05.682Z,472.00
2018-05-07T10:57:25.824Z,516.00
2018-05-07T10:58:25.808Z,616.00
2018-05-07T11:00:33.195Z,916.00
2018-05-07T11:01:33.242Z,956.00
2018-05-07T11:03:26.146Z,812.00
2018-05-07T11:04:26.117Z,720.00
2018-05-07T11:06:19.022Z,632.00
2018-05-07T11:07:19.108Z,588.00
2018-05-07T11:09:26.394Z,728.00
2018-05-07T11:10:26.401Z,836.00
2018-05-07T11:12:19.311Z,1064.00
2018-05-07T11:13:19.311Z,1120.00
2018-05-07T11:15:12.315Z,1172.00
2018-05-07T11:16:12.236Z,1164.00
2018-05-07T11:18:32.379Z,936.00
2018-05-07T11:19:32.363Z,828.00
2018-05-07T11:21:39.732Z,628.00
2018-05-07T11:22:39.732Z,524.00
2018-05-07T11:24:32.628Z,508.00
2018-05-07T11:25:32.655Z,576.00
2018-05-07T11:27:25.567Z,596.00
2018-05-07T11:28:25.568Z,588.00
2018-05-07T11:30:45.701Z,532.00
2018-05-07T11:31:45.696Z,516.00
2018-05-07T11:34:04.964Z,544.00
2018-05-07T11:35:04.975Z,528.00
2018-05-07T11:37:25.560Z,540.00
2018-05-07T11:38:25.101Z,556.00
2018-05-07T11:40:18.605Z,528.00
2018-05-07T11:41:18.019Z,544.00
2018-05-07T11:43:10.939Z,508.00
2018-05-07T11:44:10.937Z,484.00
2018-05-07T11:46:42.976Z,360.00
2018-05-07T11:47:43.006Z,364.00
2018-05-07T11:49:51.023Z,344.00
2018-05-07T11:50:50.362Z,344.00
2018-05-07T11:53:10.527Z,376.00
2018-05-07T11:54:10.474Z,448.00
2018-05-07T11:56:31.047Z,624.00
2018-05-07T11:57:30.602Z,692.00
2018-05-07T11:59:50.793Z,988.00
2018-05-07T12:00:50.727Z,1028.00
2018-05-07T12:03:10.291Z,1060.00
2018-05-07T12:04:10.008Z,1068.00
2018-05-07T12:06:30.133Z,960.00
2018-05-07T12:07:30.131Z,976.00
2018-05-07T12:09:23.666Z,948.00
2018-05-07T12:10:23.049Z,912.00
2018-05-07T12:12:16.818Z,876.00
2018-05-07T12:13:16.817Z,880.00
2018-05-07T12:15:11.434Z,848.00
2018-05-07T12:16:11.434Z,868.00
2018-05-07T12:18:31.571Z,980.00
2018-05-07T12:19:31.560Z,984.00
2018-05-07T12:21:25.065Z,992.00
2018-05-07T12:22:24.525Z,1020.00
2018-05-07T12:24:17.407Z,1104.00
2018-05-07T12:25:17.409Z,1112.00
2018-05-07T12:27:24.956Z,1092.00
2018-05-07T12:28:24.780Z,1052.00
2018-05-07T12:30:56.815Z,1028.00
2018-05-07T12:31:56.868Z,1092.00
2018-05-07T12:34:04.365Z,1092.00
2018-05-07T12:35:04.187Z,1036.00
2018-05-07T12:36:57.084Z,876.00
2018-05-07T12:37:57.106Z,824.00
2018-05-07T12:39:50.025Z,764.00
2018-05-07T12:40:50.025Z,652.00
2018-05-07T12:43:10.597Z,696.00
2018-05-07T12:44:10.152Z,776.00
2018-05-07T12:46:17.791Z,740.00
2018-05-07T12:47:17.526Z,760.00
2018-05-07T12:49:10.442Z,884.00
2018-05-07T12:50:10.441Z,776.00
2018-05-07T12:52:03.425Z,668.00
2018-05-07T12:53:03.360Z,544.00
2018-05-07T12:54:03.412Z,504.00
2018-05-07T12:55:03.416Z,484.00
2018-05-07T12:56:03.447Z,440.00
2018-05-07T12:57:03.473Z,428.00
2018-05-07T12:58:03.501Z,416.00
2018-05-07T12:59:03.583Z,388.00
2018-05-07T13:00:03.559Z,368.00
2018-05-07T13:01:03.605Z,336.00
2018-05-07T13:02:03.614Z,316.00
2018-05-07T13:03:03.669Z,288.00
2018-05-07T13:04:03.669Z,272.00
2018-05-07T13:05:03.702Z,252.00
2018-05-07T13:06:03.727Z,240.00
2018-05-07T13:07:03.754Z,240.00
2018-05-07T13:08:03.781Z,304.00
2018-05-07T13:09:03.811Z,308.00
2018-05-07T13:10:03.840Z,404.00
2018-05-07T13:11:03.867Z,500.00
2018-05-07T13:12:03.898Z,508.00
2018-05-07T13:13:03.968Z,344.00
2018-05-07T13:14:03.952Z,324.00
2018-05-07T13:15:03.980Z,296.00
2018-05-07T13:16:04.008Z,304.00
2018-05-07T13:17:04.058Z,256.00
2018-05-07T13:18:04.065Z,272.00
2018-05-07T13:19:04.092Z,300.00
2018-05-07T13:20:04.120Z,352.00
2018-05-07T13:21:04.149Z,428.00
2018-05-07T13:22:04.177Z,444.00
2018-05-07T13:23:04.243Z,420.00
2018-05-07T13:24:04.233Z,436.00
2018-05-07T13:25:04.261Z,468.00
2018-05-07T13:26:04.290Z,528.00
2018-05-07T13:27:04.337Z,596.00
2018-05-07T13:28:04.346Z,668.00
2018-05-07T13:29:04.376Z,620.00
2018-05-07T13:30:04.403Z,456.00
2018-05-07T13:31:04.430Z,316.00
2018-05-07T13:32:04.458Z,256.00
2018-05-07T13:33:04.487Z,268.00
2018-05-07T13:34:04.515Z,300.00
2018-05-07T13:35:04.543Z,316.00
2018-05-07T13:36:04.570Z,376.00
2018-05-07T13:37:04.599Z,368.00
2018-05-07T13:38:04.665Z,312.00
2018-05-07T13:39:04.654Z,288.00
2018-05-07T13:40:04.683Z,284.00